Time;durP1;ratioP1;P1;durP2;ratioP2;P2;SDS_P1;SDS_P2;PMS_P1;PMS_P2;Temp;Humidity;BMP_temperature;BMP_pressure;BME280_temperature;BME280_humidity;BME280_pressure;Samples;Min_cycle;Max_cycle;Signal;HPM_P1;HPM_P2
2022/03/07 00:00:37;;;;;;;7.57;1.35;;;;;;;6.92;58.75;101804.34;5054842;28;20060;-85
2022/03/07 00:03:03;;;;;;;5.63;1.67;;;;;;;6.73;58.88;101806.63;5056830;28;20037;-85
2022/03/07 00:05:29;;;;;;;5.88;1.80;;;;;;;6.86;58.92;101808.00;5056881;28;20033;-85
2022/03/07 00:07:54;;;;;;;5.10;1.70;;;;;;;6.88;58.83;101807.94;5056368;28;20474;-85
2022/03/07 00:10:19;;;;;;;12.27;1.85;;;;;;;6.86;58.62;101804.53;5057031;28;20029;-85
2022/03/07 00:12:45;;;;;;;4.47;1.58;;;;;;;6.74;58.70;101809.22;5056362;28;20432;-85
2022/03/07 00:15:10;;;;;;;7.70;1.88;;;;;;;6.82;58.98;101810.75;5056844;28;20028;-85
2022/03/07 00:17:36;;;;;;;6.68;1.77;;;;;;;6.89;58.51;101800.06;5055098;28;20032;-85
2022/03/07 00:20:04;;;;;;;5.80;1.48;;;;;;;6.86;58.62;101799.31;5054358;28;20023;-85
2022/03/07 00:22:29;;;;;;;8.77;1.80;;;;;;;6.87;58.65;101801.00;5052640;28;20390;-85
2022/03/07 00:24:55;;;;;;;6.78;2.10;;;;;;;6.80;58.80;101791.66;5053130;28;20027;-85
2022/03/07 00:27:20;;;;;;;10.68;2.00;;;;;;;6.75;58.99;101797.88;5053926;28;20042;-85
2022/03/07 00:29:45;;;;;;;8.60;2.25;;;;;;;6.87;58.74;101798.38;5053526;28;20455;-85
2022/03/07 00:32:11;;;;;;;10.10;1.80;;;;;;;6.87;59.14;101801.00;5053567;28;20048;-85
2022/03/07 00:34:36;;;;;;;6.22;1.75;;;;;;;6.96;58.83;101798.13;5053165;28;20043;-85
2022/03/07 00:37:01;;;;;;;5.13;1.30;;;;;;;6.91;58.92;101810.44;5053438;28;20048;-85
2022/03/07 00:39:27;;;;;;;7.30;1.48;;;;;;;7.00;59.17;101815.41;5053540;28;20421;-85
2022/03/07 00:41:52;;;;;;;7.38;1.55;;;;;;;7.13;58.69;101803.69;5053385;28;20100;-85
2022/03/07 00:44:17;;;;;;;5.32;1.80;;;;;;;7.20;58.66;101809.56;5052816;28;20025;-85
2022/03/07 00:46:43;;;;;;;4.20;1.15;;;;;;;7.25;58.76;101812.06;5053658;28;20091;-85
2022/03/07 00:49:08;;;;;;;7.85;1.27;;;;;;;7.25;58.30;101806.81;5053011;28;20028;-85
2022/03/07 00:51:34;;;;;;;6.00;1.50;;;;;;;7.27;58.47;101799.78;5052607;28;20039;-85
2022/03/07 00:53:59;;;;;;;5.03;1.52;;;;;;;7.28;58.23;101801.47;5052655;28;20031;-85
2022/03/07 00:56:24;;;;;;;7.35;2.08;;;;;;;7.32;58.28;101800.47;5051262;28;20063;-85
2022/03/07 00:58:50;;;;;;;9.25;1.65;;;;;;;7.22;57.79;101792.09;5052435;28;20056;-85
2022/03/07 01:01:15;;;;;;;6.32;1.40;;;;;;;7.21;58.26;101798.22;5051314;28;20112;-85
2022/03/07 01:03:41;;;;;;;6.25;1.50;;;;;;;7.20;57.77;101800.88;5052304;28;20057;-85
2022/03/07 01:06:06;;;;;;;5.10;1.48;;;;;;;7.16;57.43;101794.88;5052385;28;20024;-85
2022/03/07 01:08:31;;;;;;;5.93;1.63;;;;;;;7.39;57.48;101795.94;5052037;28;20115;-85
2022/03/07 01:10:57;;;;;;;5.55;1.45;;;;;;;7.48;57.06;101793.84;5052420;28;20021;-85
2022/03/07 01:13:22;;;;;;;6.65;2.20;;;;;;;7.58;56.77;101788.31;5052233;28;20163;-85
2022/03/07 01:15:48;;;;;;;11.00;1.67;;;;;;;7.54;57.26;101796.28;5052277;28;20024;-85
2022/03/07 01:18:14;;;;;;;6.72;1.70;;;;;;;7.41;56.49;101787.13;5052192;28;20037;-85
2022/03/07 01:20:39;;;;;;;8.93;1.30;;;;;;;7.53;56.62;101801.56;5052285;28;20077;-85
2022/03/07 01:23:05;;;;;;;6.95;1.60;;;;;;;7.62;55.74;101793.41;5051907;28;20605;-85
2022/03/07 01:25:30;;;;;;;8.05;1.20;;;;;;;7.67;56.04;101794.09;5052091;28;20167;-85
2022/03/07 01:27:56;;;;;;;9.90;1.80;;;;;;;7.73;56.32;101798.28;5052362;28;20029;-85
2022/03/07 01:30:22;;;;;;;11.10;1.50;;;;;;;7.77;55.89;101789.41;5052123;28;20017;-85
2022/03/07 01:32:47;;;;;;;7.35;1.40;;;;;;;7.83;55.62;101797.03;5052195;28;20033;-85
2022/03/07 01:35:13;;;;;;;10.35;1.52;;;;;;;7.82;55.98;101784.91;5051931;28;20025;-85
2022/03/07 01:37:38;;;;;;;3.90;1.35;;;;;;;7.78;56.07;101791.13;5051966;28;20107;-85
2022/03/07 01:40:05;;;;;;;5.18;1.23;;;;;;;7.87;55.27;101785.56;5051790;28;20025;-85
2022/03/07 01:42:30;;;;;;;5.05;1.10;;;;;;;7.97;55.63;101790.50;5051731;28;20052;-85
2022/03/07 01:45:06;;;;;;;5.90;1.15;;;;;;;7.98;55.94;101784.34;5052250;28;20102;-85
2022/03/07 01:47:33;;;;;;;4.93;1.20;;;;;;;7.92;54.95;101782.81;5051805;28;20021;-85
2022/03/07 01:49:58;;;;;;;7.90;1.20;;;;;;;7.93;55.48;101780.13;5051591;28;20028;-85
2022/03/07 01:52:23;;;;;;;7.43;1.45;;;;;;;7.99;54.82;101773.84;5051950;28;20028;-85
2022/03/07 01:54:49;;;;;;;6.43;1.38;;;;;;;7.95;54.99;101778.31;5051337;28;20465;-85
2022/03/07 01:57:15;;;;;;;5.70;1.30;;;;;;;7.92;55.75;101777.59;5051599;28;20033;-85
2022/03/07 01:59:41;;;;;;;4.00;1.00;;;;;;;7.94;55.18;101775.78;5051623;28;20033;-85
2022/03/07 02:02:06;;;;;;;4.65;1.10;;;;;;;7.86;55.08;101778.66;5050600;28;20028;-85
2022/03/07 02:04:32;;;;;;;5.55;1.20;;;;;;;7.88;55.93;101771.59;5051655;28;20021;-85
2022/03/07 02:06:57;;;;;;;8.13;2.97;;;;;;;7.75;55.95;101767.69;5051680;28;20049;-85
2022/03/07 02:09:22;;;;;;;7.97;2.10;;;;;;;7.59;56.55;101762.13;5050344;28;20442;-85
2022/03/07 02:11:48;;;;;;;8.65;1.73;;;;;;;7.54;56.38;101771.88;5051977;28;20498;-85
2022/03/07 02:14:16;;;;;;;3.75;1.10;;;;;;;7.63;56.35;101760.28;5051874;28;20029;-85
2022/03/07 02:16:42;;;;;;;5.90;1.52;;;;;;;7.32;57.43;101763.91;5051643;28;20025;-85
2022/03/07 02:19:08;;;;;;;6.72;1.80;;;;;;;7.58;56.83;101759.56;5051546;28;20116;-85
2022/03/07 02:21:34;;;;;;;7.10;1.75;;;;;;;7.70;56.13;101748.69;5051472;28;20027;-85
2022/03/07 02:24:00;;;;;;;6.72;1.42;;;;;;;7.59;57.06;101746.47;5051581;28;20040;-85
2022/03/07 02:26:25;;;;;;;3.28;1.10;;;;;;;7.58;56.71;101743.88;5051684;28;20029;-85
2022/03/07 02:28:51;;;;;;;6.78;1.55;;;;;;;7.57;57.14;101739.59;5051762;28;20036;-85
2022/03/07 02:31:19;;;;;;;6.82;1.08;;;;;;;7.64;56.68;101734.09;5051376;28;20490;-85
2022/03/07 02:33:44;;;;;;;6.75;1.30;;;;;;;7.61;56.62;101723.72;5051195;28;20431;-85
2022/03/07 02:36:10;;;;;;;7.97;1.30;;;;;;;7.56;56.73;101717.78;5051289;28;20022;-85
2022/03/07 02:38:35;;;;;;;5.25;1.10;;;;;;;7.66;56.45;101720.94;5049913;28;20025;-83
2022/03/07 02:41:01;;;;;;;7.50;1.40;;;;;;;7.72;56.11;101712.88;5055061;28;20043;-84
2022/03/07 02:43:27;;;;;;;6.95;1.50;;;;;;;7.71;55.98;101698.97;5050768;28;20029;-84
2022/03/07 02:45:52;;;;;;;3.97;1.27;;;;;;;7.62;56.49;101708.91;5051090;28;20029;-84
2022/03/07 02:48:18;;;;;;;9.43;1.38;;;;;;;7.75;56.33;101697.09;5052729;28;20082;-84
2022/03/07 02:50:45;;;;;;;3.70;0.90;;;;;;;7.82;55.64;101698.59;5054764;28;20056;-84
2022/03/07 02:53:11;;;;;;;10.88;1.33;;;;;;;7.83;55.57;101689.84;5054838;28;20021;-84
2022/03/07 02:55:37;;;;;;;6.00;1.23;;;;;;;7.82;55.74;101688.16;5054638;28;20479;-84
2022/03/07 02:58:03;;;;;;;10.20;1.70;;;;;;;7.67;55.61;101683.47;5054634;28;20021;-85
2022/03/07 03:00:29;;;;;;;6.90;1.10;;;;;;;7.75;55.40;101682.25;5054444;28;20029;-85
2022/03/07 03:02:54;;;;;;;5.10;1.23;;;;;;;7.77;54.81;101677.00;5054463;28;20036;-85
2022/03/07 03:05:20;;;;;;;6.47;1.40;;;;;;;7.89;54.70;101689.63;5054484;28;20029;-85
2022/03/07 03:07:47;;;;;;;5.88;1.30;;;;;;;7.93;54.07;101683.34;5054633;28;20069;-85
2022/03/07 03:10:14;;;;;;;4.10;0.77;;;;;;;8.01;54.55;101679.63;5054335;28;20123;-85
2022/03/07 03:12:39;;;;;;;8.18;1.77;;;;;;;7.93;54.06;101678.13;5054410;28;20441;-84
2022/03/07 03:15:06;;;;;;;6.30;1.15;;;;;;;8.02;54.36;101668.25;5054268;28;20029;-85
2022/03/07 03:17:31;;;;;;;3.08;0.93;;;;;;;8.03;54.21;101670.81;5054322;28;20024;-85
2022/03/07 03:19:56;;;;;;;10.10;1.55;;;;;;;8.02;54.10;101666.50;5054246;28;20070;-85
2022/03/07 03:22:22;;;;;;;2.58;0.95;;;;;;;8.12;54.29;101674.84;5054498;28;20101;-85
2022/03/07 03:24:48;;;;;;;3.78;0.90;;;;;;;8.20;54.85;101670.19;5054097;28;20036;-85
2022/03/07 03:27:13;;;;;;;7.47;1.13;;;;;;;8.10;54.50;101671.44;5054236;28;20533;-85
2022/03/07 03:29:39;;;;;;;6.82;0.93;;;;;;;8.11;54.87;101667.91;5054023;28;20021;-85
2022/03/07 03:32:05;;;;;;;5.03;0.80;;;;;;;8.18;54.65;101661.53;5054274;28;20104;-85
2022/03/07 03:34:30;;;;;;;4.45;1.05;;;;;;;8.11;54.49;101667.91;5053893;28;20035;-84
2022/03/07 03:36:56;;;;;;;6.53;1.20;;;;;;;8.11;54.37;101652.19;5053917;28;20033;-85
2022/03/07 03:39:21;;;;;;;9.27;1.48;;;;;;;8.17;54.12;101656.34;5053838;28;20024;-85
2022/03/07 03:41:46;;;;;;;9.70;1.30;;;;;;;8.15;54.59;101648.56;5053795;28;20064;-85
2022/03/07 03:44:12;;;;;;;9.25;1.13;;;;;;;8.11;54.36;101641.75;5053801;28;20032;-85
2022/03/07 03:46:37;;;;;;;6.30;1.15;;;;;;;8.01;54.40;101643.84;5053727;28;20036;-84
2022/03/07 03:49:03;;;;;;;4.45;1.00;;;;;;;7.93;54.99;101644.13;5054025;28;20531;-84
2022/03/07 03:51:29;;;;;;;6.95;1.17;;;;;;;7.79;54.98;101630.72;5053737;28;20033;-85
2022/03/07 03:53:55;;;;;;;5.90;1.23;;;;;;;7.85;55.32;101640.94;5053617;28;20025;-85
2022/03/07 03:56:21;;;;;;;3.67;1.05;;;;;;;7.84;54.93;101636.66;5054664;28;20524;-84
2022/03/07 03:58:46;;;;;;;6.07;1.23;;;;;;;7.71;54.88;101632.78;5056452;28;20025;-84
2022/03/07 04:01:11;;;;;;;8.50;1.17;;;;;;;7.74;53.95;101632.63;5055922;28;20033;-84
2022/03/07 04:03:37;;;;;;;6.40;1.20;;;;;;;7.89;53.35;101624.22;5056608;28;20029;-83
2022/03/07 04:06:04;;;;;;;7.35;1.10;;;;;;;7.84;52.83;101627.94;5056194;28;20031;-84
2022/03/07 04:08:39;;;;;;;3.67;1.08;;;;;;;8.08;52.63;101623.56;5055663;28;20060;-83
2022/03/07 04:11:04;;;;;;;10.15;1.30;;;;;;;7.94;53.63;101627.53;5056495;28;20032;-84
2022/03/07 04:13:29;;;;;;;4.82;0.95;;;;;;;8.07;53.27;101614.84;5054924;28;20471;-83
2022/03/07 04:15:54;;;;;;;6.85;1.08;;;;;;;7.99;53.63;101614.28;5053816;28;20490;-83
2022/03/07 04:18:20;;;;;;;7.22;1.42;;;;;;;8.07;52.65;101616.63;5053716;28;20048;-84
2022/03/07 04:20:45;;;;;;;5.15;1.40;;;;;;;8.10;53.46;101619.97;5053329;28;20024;-84
2022/03/07 04:23:11;;;;;;;4.13;0.82;;;;;;;8.01;52.86;101609.84;5051923;28;20028;-84
2022/03/07 04:25:36;;;;;;;4.63;0.95;;;;;;;8.04;53.12;101609.75;5051988;28;20490;-84
2022/03/07 04:28:01;;;;;;;8.95;0.90;;;;;;;8.07;53.39;101611.38;5053156;28;20100;-84
2022/03/07 04:30:27;;;;;;;6.60;1.10;;;;;;;8.13;53.06;101603.28;5052850;28;20029;-84
2022/03/07 04:32:52;;;;;;;7.55;1.27;;;;;;;8.13;52.16;101609.38;5053841;28;20100;-84
2022/03/07 04:35:18;;;;;;;10.48;0.93;;;;;;;8.20;52.28;101604.78;5053623;28;20383;-84
2022/03/07 04:37:44;;;;;;;7.22;0.93;;;;;;;8.03;52.37;101604.56;5053364;28;20048;-84
2022/03/07 04:40:13;;;;;;;8.77;1.45;;;;;;;8.06;53.14;101607.06;5052990;28;20035;-84
2022/03/07 04:42:41;;;;;;;5.50;0.98;;;;;;;8.16;52.84;101608.41;5052841;28;20463;-84
2022/03/07 04:45:07;;;;;;;9.93;1.27;;;;;;;8.14;52.86;101605.84;5052867;28;20025;-84
2022/03/07 04:47:32;;;;;;;3.17;0.82;;;;;;;8.19;52.60;101610.06;5052955;28;20048;-84
2022/03/07 04:49:57;;;;;;;7.20;1.75;;;;;;;8.20;52.27;101609.16;5052922;28;20060;-84
2022/03/07 04:52:23;;;;;;;5.10;1.20;;;;;;;8.10;52.42;101604.28;5052597;28;20021;-85
2022/03/07 04:54:48;;;;;;;9.05;1.20;;;;;;;8.17;52.65;101609.25;5052371;28;20051;-85
2022/03/07 04:57:13;;;;;;;6.05;1.00;;;;;;;8.20;53.08;101604.78;5051129;28;20028;-84
2022/03/07 04:59:39;;;;;;;8.55;1.50;;;;;;;8.26;53.19;101611.53;5052361;28;20035;-84
2022/03/07 05:02:04;;;;;;;5.55;0.82;;;;;;;8.18;52.87;101617.06;5053125;28;20109;-84
2022/03/07 05:04:29;;;;;;;6.50;0.95;;;;;;;8.17;52.56;101610.09;5052733;28;20118;-84
2022/03/07 05:06:55;;;;;;;8.43;1.17;;;;;;;8.12;52.07;101604.22;5052684;28;20032;-84
2022/03/07 05:09:20;;;;;;;4.40;0.93;;;;;;;8.07;52.94;101600.91;5053037;28;20021;-84
2022/03/07 05:11:46;;;;;;;9.40;1.00;;;;;;;8.12;52.91;101606.84;5052327;28;20080;-84
2022/03/07 05:14:11;;;;;;;5.25;1.05;;;;;;;8.25;52.27;101601.97;5052548;28;20406;-84
2022/03/07 05:16:36;;;;;;;10.68;0.93;;;;;;;8.34;52.24;101606.84;5053043;28;20537;-84
2022/03/07 05:19:02;;;;;;;5.75;1.10;;;;;;;8.33;52.43;101608.63;5052571;28;20037;-84
2022/03/07 05:21:27;;;;;;;6.53;1.00;;;;;;;8.30;51.96;101600.03;5052535;28;20497;-84
2022/03/07 05:23:52;;;;;;;6.07;1.00;;;;;;;8.29;52.19;101593.09;5052158;28;20431;-84
2022/03/07 05:26:18;;;;;;;5.30;0.70;;;;;;;8.24;52.31;101589.81;5052480;28;20033;-84
2022/03/07 05:28:43;;;;;;;6.38;0.88;;;;;;;8.35;51.52;101592.84;5052120;28;20414;-84
2022/03/07 05:31:12;;;;;;;6.55;0.85;;;;;;;8.37;51.28;101582.31;5052183;28;20025;-84
2022/03/07 05:33:37;;;;;;;5.07;0.88;;;;;;;8.15;52.28;101583.16;5052382;28;20021;-84
2022/03/07 05:36:05;;;;;;;7.60;1.35;;;;;;;8.26;51.79;101580.97;5051981;28;20052;-84
2022/03/07 05:38:30;;;;;;;7.35;0.82;;;;;;;7.93;53.03;101581.38;5052144;28;20539;-84
2022/03/07 05:40:56;;;;;;;6.07;1.13;;;;;;;7.90;52.94;101580.66;5052080;28;20104;-84
2022/03/07 05:43:21;;;;;;;6.63;1.08;;;;;;;7.98;52.87;101580.34;5051857;28;20397;-84
2022/03/07 05:45:46;;;;;;;5.85;0.90;;;;;;;8.05;52.88;101579.19;5052034;28;20029;-84
2022/03/07 05:48:12;;;;;;;6.18;0.95;;;;;;;8.20;51.94;101583.00;5052051;28;20052;-84
2022/03/07 05:50:37;;;;;;;4.47;0.95;;;;;;;8.38;51.82;101571.78;5052223;28;20488;-84
2022/03/07 05:53:03;;;;;;;5.10;1.00;;;;;;;8.45;52.49;101582.88;5052134;28;20059;-84
2022/03/07 05:55:28;;;;;;;4.60;0.90;;;;;;;8.44;52.21;101575.97;5052122;28;20064;-84
2022/03/07 05:57:59;;;;;;;7.90;0.88;;;;;;;8.49;52.34;101579.22;5052101;28;20647;-84
2022/03/07 06:00:25;;;;;;;17.02;3.38;;;;;;;8.30;52.12;101582.56;5050312;28;20035;-84
2022/03/07 06:02:50;;;;;;;7.53;0.95;;;;;;;8.35;52.15;101577.13;5051928;28;20108;-84
2022/03/07 06:05:15;;;;;;;6.18;1.10;;;;;;;8.41;52.23;101570.81;5051885;28;20021;-84
2022/03/07 06:07:41;;;;;;;5.68;1.27;;;;;;;8.34;52.42;101572.84;5051997;28;20028;-84
2022/03/07 06:10:06;;;;;;;6.68;1.10;;;;;;;8.48;52.55;101577.53;5051766;28;20029;-83
2022/03/07 06:12:31;;;;;;;5.03;0.80;;;;;;;8.40;52.81;101569.97;5051506;28;20086;-84
2022/03/07 06:14:57;;;;;;;5.68;0.95;;;;;;;8.39;52.62;101577.88;5051282;28;20455;-84
2022/03/07 06:17:22;;;;;;;6.35;0.70;;;;;;;8.26;52.97;101573.13;5051699;28;20071;-84
2022/03/07 06:19:48;;;;;;;11.30;1.10;;;;;;;8.46;52.64;101576.75;5051570;28;20052;-84
2022/03/07 06:22:13;;;;;;;3.85;0.70;;;;;;;8.25;52.69;101570.56;5051709;28;20100;-84
2022/03/07 06:24:39;;;;;;;5.60;0.90;;;;;;;8.11;52.92;101573.72;5055763;28;20124;-84
2022/03/07 06:27:04;;;;;;;6.70;1.25;;;;;;;8.07;53.24;101578.22;5053776;28;20056;-84
2022/03/07 06:29:29;;;;;;;4.07;1.17;;;;;;;8.24;53.48;101566.25;5055126;28;20079;-84
2022/03/07 06:31:55;;;;;;;5.95;1.10;;;;;;;8.10;53.94;101579.88;5055232;28;20045;-83
2022/03/07 06:34:21;;;;;;;9.07;0.88;;;;;;;8.22;53.53;101562.84;5055117;28;20429;-83
2022/03/07 06:36:46;;;;;;;7.45;1.10;;;;;;;8.20;53.63;101562.91;5055044;28;20025;-83
2022/03/07 06:39:11;;;;;;;5.85;1.35;;;;;;;8.25;53.24;101560.09;5055048;28;20040;-83
2022/03/07 06:41:37;;;;;;;7.15;0.93;;;;;;;8.49;52.84;101559.16;5055052;28;20075;-85
2022/03/07 06:44:02;;;;;;;5.70;0.80;;;;;;;8.58;52.71;101562.31;5054858;28;20030;-84
2022/03/07 06:46:28;;;;;;;5.10;0.88;;;;;;;8.65;52.08;101554.16;5055228;28;20075;-85
2022/03/07 06:48:54;;;;;;;5.40;0.80;;;;;;;8.61;52.25;101556.94;5054803;28;20017;-84
2022/03/07 06:51:20;;;;;;;6.68;1.15;;;;;;;8.61;52.18;101557.81;5054865;28;20044;-85
2022/03/07 06:53:46;;;;;;;4.93;0.90;;;;;;;8.67;52.66;101562.78;5054810;28;20024;-84
2022/03/07 06:56:11;;;;;;;5.65;0.90;;;;;;;8.67;53.01;101554.94;5053319;28;20368;-85
2022/03/07 06:58:36;;;;;;;6.10;1.10;;;;;;;8.65;52.69;101548.91;5054061;28;20021;-85
2022/03/07 07:01:02;;;;;;;8.63;1.00;;;;;;;8.67;53.14;101552.31;5052230;28;20029;-84
2022/03/07 07:03:27;;;;;;;5.80;1.15;;;;;;;8.59;53.16;101538.69;5054262;28;20334;-84
2022/03/07 07:05:53;;;;;;;8.90;1.00;;;;;;;8.60;53.28;101543.00;5054043;28;20029;-84
2022/03/07 07:08:18;;;;;;;6.32;0.85;;;;;;;8.61;53.25;101549.97;5054329;28;20383;-85
2022/03/07 07:10:44;;;;;;;13.80;1.73;;;;;;;8.66;52.67;101545.34;5054081;28;20522;-84
2022/03/07 07:13:14;;;;;;;11.63;1.10;;;;;;;8.61;52.98;101547.34;5054053;28;20021;-82
2022/03/07 07:15:42;;;;;;;12.70;1.55;;;;;;;8.66;53.44;101545.34;5053962;28;20435;-83
2022/03/07 07:18:08;;;;;;;9.82;2.00;;;;;;;8.64;53.03;101538.50;5053887;28;20036;-83
2022/03/07 07:20:33;;;;;;;8.40;1.33;;;;;;;8.70;53.12;101531.22;5052863;28;20029;-83
2022/03/07 07:22:59;;;;;;;10.43;1.50;;;;;;;8.72;53.43;101544.25;5052551;28;20091;-83
2022/03/07 07:25:24;;;;;;;5.78;1.38;;;;;;;8.54;53.94;101531.00;5052175;28;20021;-85
2022/03/07 07:27:50;;;;;;;10.30;1.23;;;;;;;8.46;54.84;101525.25;5052158;28;20031;-85
2022/03/07 07:30:15;;;;;;;9.32;1.15;;;;;;;8.69;54.37;101528.69;5051299;28;20029;-84
2022/03/07 07:32:40;;;;;;;7.75;1.13;;;;;;;8.62;55.00;101529.84;5051287;28;20047;-84
2022/03/07 07:35:07;;;;;;;6.93;1.25;;;;;;;8.70;54.80;101533.84;5050774;28;20087;-84
2022/03/07 07:37:33;;;;;;;4.97;0.90;;;;;;;8.62;54.56;101529.84;5050598;28;20352;-85
2022/03/07 07:39:58;;;;;;;8.50;1.65;;;;;;;8.74;54.32;101527.56;5049671;28;20025;-84
2022/03/07 07:42:23;;;;;;;7.25;1.20;;;;;;;8.79;55.03;101530.00;5051797;28;20013;-83
2022/03/07 07:44:49;;;;;;;8.57;1.13;;;;;;;8.53;55.25;101529.31;5052189;28;20067;-84
2022/03/07 07:47:14;;;;;;;13.80;2.08;;;;;;;8.47;55.48;101532.19;5051886;28;20017;-85
2022/03/07 07:49:39;;;;;;;12.95;1.65;;;;;;;8.44;55.83;101531.47;5049512;28;20052;-84
2022/03/07 07:52:05;;;;;;;12.43;1.40;;;;;;;8.62;55.06;101535.94;5048312;28;20047;-83
2022/03/07 07:54:31;;;;;;;7.72;1.25;;;;;;;8.69;54.76;101529.53;5048292;28;20072;-84
2022/03/07 07:56:56;;;;;;;5.63;1.48;;;;;;;8.92;54.55;101530.31;5049206;28;20487;-82
2022/03/07 07:59:23;;;;;;;7.18;1.33;;;;;;;8.98;53.82;101531.81;5048939;28;20059;-82
2022/03/07 08:01:49;;;;;;;6.10;0.90;;;;;;;8.81;55.13;101528.16;5048168;28;20041;-82
2022/03/07 08:04:14;;;;;;;6.38;1.08;;;;;;;8.65;54.34;101522.72;5049404;28;20029;-83
2022/03/07 08:06:40;;;;;;;9.10;1.10;;;;;;;8.46;55.10;101527.03;5048849;28;20037;-83
2022/03/07 08:09:06;;;;;;;6.93;1.45;;;;;;;8.32;55.45;101525.78;5048318;28;20304;-84
2022/03/07 08:11:31;;;;;;;10.30;1.45;;;;;;;8.37;56.09;101532.59;5053289;28;20041;-83
2022/03/07 08:13:57;;;;;;;10.75;2.03;;;;;;;8.57;55.50;101530.06;5052872;28;20025;-84
2022/03/07 08:16:22;;;;;;;9.82;1.30;;;;;;;8.72;55.86;101533.78;5052521;28;20025;-84
2022/03/07 08:18:47;;;;;;;3.03;0.98;;;;;;;8.77;56.18;101538.81;5053600;28;20479;-84
2022/03/07 08:21:13;;;;;;;9.70;1.50;;;;;;;8.67;55.71;101541.84;5053331;28;20029;-84
2022/03/07 08:23:38;;;;;;;16.88;1.92;;;;;;;8.54;56.21;101530.16;5053031;28;20112;-85
2022/03/07 08:26:04;;;;;;;5.57;1.30;;;;;;;8.65;56.08;101538.44;5053275;28;20028;-84
2022/03/07 08:28:29;;;;;;;6.20;1.13;;;;;;;8.59;55.99;101525.59;5052816;28;20489;-84
2022/03/07 08:30:54;;;;;;;6.82;1.60;;;;;;;8.67;56.18;101528.75;5051411;28;20033;-84
2022/03/07 08:33:20;;;;;;;13.80;2.03;;;;;;;8.68;55.70;101529.59;5052295;28;20025;-83
2022/03/07 08:35:45;;;;;;;15.27;1.88;;;;;;;8.89;55.56;101520.00;5052442;28;20381;-84
2022/03/07 08:38:11;;;;;;;9.93;1.52;;;;;;;8.94;55.22;101523.22;5051869;28;20107;-85
2022/03/07 08:40:36;;;;;;;6.32;1.05;;;;;;;9.00;55.11;101519.50;5052635;28;20028;-85
2022/03/07 08:43:01;;;;;;;13.35;1.83;;;;;;;8.93;55.23;101522.41;5052495;28;20033;-85
2022/03/07 08:45:27;;;;;;;11.88;1.98;;;;;;;9.00;54.87;101522.13;5051560;28;20021;-84
2022/03/07 08:47:53;;;;;;;9.27;1.48;;;;;;;9.03;54.84;101522.84;5052616;28;20032;-85
2022/03/07 08:50:19;;;;;;;7.82;1.30;;;;;;;9.26;54.51;101513.09;5051406;28;20550;-85
2022/03/07 08:52:45;;;;;;;8.35;1.80;;;;;;;9.30;54.39;101519.91;5052521;28;20117;-85
2022/03/07 08:55:11;;;;;;;10.35;1.77;;;;;;;9.34;54.72;101521.50;5054792;28;20090;-84
2022/03/07 08:57:37;;;;;;;6.18;1.25;;;;;;;9.45;54.69;101519.22;5051453;28;20040;-84
2022/03/07 09:00:07;;;;;;;5.53;0.82;;;;;;;9.43;54.16;101510.59;5052416;28;20045;-83
2022/03/07 09:02:32;;;;;;;9.45;1.50;;;;;;;9.28;54.43;101514.75;5051912;28;20032;-84
2022/03/07 09:04:57;;;;;;;8.65;1.60;;;;;;;9.43;53.71;101507.13;5052369;28;20379;-84
2022/03/07 09:07:25;;;;;;;5.90;1.67;;;;;;;9.56;54.20;101510.00;5052616;28;20644;-84
2022/03/07 09:09:50;;;;;;;11.45;1.73;;;;;;;9.73;53.33;101502.22;5052142;28;20025;-84
2022/03/07 09:12:17;;;;;;;9.20;1.50;;;;;;;9.69;53.76;101508.53;5052100;28;20071;-84
2022/03/07 09:14:42;;;;;;;8.40;1.85;;;;;;;9.92;53.47;101510.94;5051691;28;20483;-84
2022/03/07 09:17:08;;;;;;;10.00;1.80;;;;;;;9.85;53.49;101509.53;5047209;28;20021;-84
2022/03/07 09:19:33;;;;;;;9.40;1.35;;;;;;;9.51;53.90;101511.06;5051254;28;20633;-84
2022/03/07 09:21:58;;;;;;;10.75;1.52;;;;;;;9.75;53.91;101500.38;5051608;28;20490;-84
2022/03/07 09:24:24;;;;;;;12.20;1.80;;;;;;;9.80;53.79;101508.88;5051109;28;20036;-84
2022/03/07 09:26:49;;;;;;;6.45;1.42;;;;;;;9.66;53.09;101500.81;5051749;28;20213;-84
2022/03/07 09:29:15;;;;;;;7.15;1.92;;;;;;;9.75;53.17;101499.53;5050734;28;20024;-83
2022/03/07 09:31:40;;;;;;;9.13;2.42;;;;;;;9.69;53.09;101495.41;5051252;28;20028;-83
2022/03/07 09:34:06;;;;;;;8.75;1.73;;;;;;;9.77;52.71;101497.69;5051745;28;20028;-83
2022/03/07 09:36:31;;;;;;;10.52;2.17;;;;;;;9.56;52.63;101495.16;5051854;28;20029;-84
2022/03/07 09:38:57;;;;;;;8.55;1.50;;;;;;;9.12;54.26;101501.50;5051057;28;20059;-85
2022/03/07 09:41:22;;;;;;;9.55;1.60;;;;;;;9.46;54.17;101497.34;5051576;28;20033;-83
2022/03/07 09:43:48;;;;;;;8.23;1.45;;;;;;;9.81;52.75;101496.63;5042786;28;20025;-84
2022/03/07 09:46:14;;;;;;;12.98;1.67;;;;;;;9.52;52.85;101499.69;5049471;28;20025;-84
2022/03/07 09:48:41;;;;;;;6.78;1.60;;;;;;;9.59;53.19;101483.66;5051512;28;20044;-84
2022/03/07 09:51:07;;;;;;;9.52;1.73;;;;;;;9.84;52.01;101473.72;5051004;28;20067;-84
2022/03/07 09:53:32;;;;;;;7.88;1.55;;;;;;;9.72;52.37;101477.78;5051185;28;20033;-84
2022/03/07 09:55:57;;;;;;;7.85;1.38;;;;;;;9.91;52.28;101476.88;5051334;28;20032;-84
2022/03/07 09:58:23;;;;;;;6.00;1.23;;;;;;;10.04;51.35;101469.28;5053362;28;20021;-84
2022/03/07 10:00:48;;;;;;;7.97;1.40;;;;;;;10.16;51.13;101460.81;5054800;28;20391;-84
2022/03/07 10:03:15;;;;;;;5.53;1.42;;;;;;;10.18;50.86;101451.09;5051175;28;20534;-84
2022/03/07 10:05:44;;;;;;;8.38;2.47;;;;;;;9.96;51.15;101453.91;5055060;28;20044;-85
2022/03/07 10:08:10;;;;;;;5.90;2.30;;;;;;;9.88;51.81;101458.69;5055284;28;20107;-85
2022/03/07 10:10:39;;;;;;;7.75;1.63;;;;;;;9.90;51.75;101447.19;5055460;28;20037;-85
2022/03/07 10:13:12;;;;;;;6.97;1.42;;;;;;;10.05;51.51;101449.97;5055334;28;20498;-84
2022/03/07 10:15:40;;;;;;;9.68;1.50;;;;;;;9.81;51.86;101446.78;5054909;28;20025;-85
2022/03/07 10:18:14;;;;;;;10.60;1.95;;;;;;;9.92;51.63;101452.38;5055234;28;20037;-84
2022/03/07 10:20:47;;;;;;;14.15;2.10;;;;;;;9.95;51.51;101438.25;5055053;28;20100;-85
2022/03/07 10:23:13;;;;;;;11.00;1.48;;;;;;;9.70;51.95;101442.06;5055271;28;20025;-85
2022/03/07 10:25:42;;;;;;;6.47;1.30;;;;;;;10.01;51.24;101437.94;5055246;28;20544;-83
2022/03/07 10:28:08;;;;;;;7.07;1.33;;;;;;;10.25;50.38;101431.50;5055000;28;20472;-84
2022/03/07 10:30:35;;;;;;;5.63;1.30;;;;;;;10.18;50.11;101435.34;5053771;28;20275;-83
2022/03/07 10:33:13;;;;;;;5.50;1.42;;;;;;;10.42;49.68;101430.66;5054352;28;20033;-84
2022/03/07 10:35:41;;;;;;;12.52;1.20;;;;;;;10.56;49.16;101429.09;5054820;28;20033;-84
2022/03/07 10:38:10;;;;;;;4.93;1.30;;;;;;;10.65;48.14;101418.97;5054930;28;20021;-85
2022/03/07 10:40:39;;;;;;;4.95;1.40;;;;;;;10.47;48.12;101419.94;5054709;28;20106;-84
2022/03/07 10:43:06;;;;;;;4.53;1.15;;;;;;;10.61;47.47;101419.22;5054952;28;20211;-84
2022/03/07 10:45:44;;;;;;;6.93;1.00;;;;;;;10.70;47.27;101416.09;5054333;28;20016;-84
2022/03/07 10:48:09;;;;;;;4.72;0.98;;;;;;;10.99;46.90;101401.41;5054406;28;20110;-85
2022/03/07 10:50:34;;;;;;;4.43;0.80;;;;;;;10.82;47.28;101398.84;5054660;28;20048;-84
2022/03/07 10:53:04;;;;;;;5.32;1.40;;;;;;;10.76;48.13;101396.53;5053405;28;20442;-84
2022/03/07 10:55:31;;;;;;;7.40;1.40;;;;;;;10.87;47.62;101402.09;5054544;28;20032;-84
2022/03/07 10:58:15;;;;;;;7.40;1.40;;;;;;;10.94;47.22;101402.59;5054784;28;20025;-84
2022/03/07 11:00:50;;;;;;;6.78;1.15;;;;;;;10.80;47.74;101395.44;5054261;28;20051;-84
2022/03/07 11:03:18;;;;;;;5.35;1.52;;;;;;;10.91;47.65;101393.94;5054325;28;20356;-84
2022/03/07 11:05:45;;;;;;;2.95;1.10;;;;;;;11.05;47.85;101385.31;5054274;28;20025;-84
2022/03/07 11:08:10;;;;;;;7.78;1.65;;;;;;;11.00;47.47;101383.88;5053710;28;20031;-84
2022/03/07 11:10:36;;;;;;;5.53;1.50;;;;;;;11.25;47.44;101370.22;5054005;28;20025;-84
2022/03/07 11:13:02;;;;;;;5.30;1.15;;;;;;;11.13;46.92;101366.50;5054292;28;20402;-84
2022/03/07 11:15:28;;;;;;;9.18;1.70;;;;;;;10.80;47.38;101364.78;5054144;28;20037;-84
2022/03/07 11:17:54;;;;;;;10.70;3.28;;;;;;;10.53;48.13;101361.84;5054358;28;20025;-84
2022/03/07 11:20:20;;;;;;;7.00;1.27;;;;;;;10.78;47.46;101355.28;5054207;28;20636;-85
2022/03/07 11:22:45;;;;;;;9.27;1.63;;;;;;;11.07;47.04;101357.16;5054301;28;20108;-84
2022/03/07 11:25:15;;;;;;;6.38;1.83;;;;;;;11.61;46.27;101350.69;5054343;28;20013;-85